createdAt,value
2022-09-22T00:01:05.719Z,2.58
2022-09-22T00:04:13.673Z,2.83
2022-09-22T00:07:18.103Z,2.67
2022-09-22T00:10:22.145Z,2.42
2022-09-22T00:16:31.755Z,2.53
2022-09-22T00:19:39.276Z,2.38
2022-09-22T00:22:43.209Z,2.20
2022-09-22T00:25:46.896Z,2.67
2022-09-22T00:28:52.526Z,2.35
2022-09-22T00:31:57.096Z,2.67
2022-09-22T00:35:03.053Z,2.10
2022-09-22T00:38:07.303Z,2.38
2022-09-22T00:41:18.252Z,2.72
2022-09-22T00:44:42.124Z,2.30
2022-09-22T00:47:47.787Z,2.35
2022-09-22T00:50:55.928Z,2.15
2022-09-22T00:54:02.010Z,1.98
2022-09-22T00:57:09.649Z,1.63
2022-09-22T01:00:15.559Z,2.10
2022-09-22T01:03:28.981Z,2.05
2022-09-22T01:09:40.255Z,2.42
2022-09-22T01:12:51.322Z,1.98
2022-09-22T01:16:07.198Z,2.03
2022-09-22T01:19:36.249Z,2.58
2022-09-22T01:23:08.765Z,2.08
2022-09-22T01:26:51.237Z,2.28
2022-09-22T01:30:27.512Z,2.33
2022-09-22T01:33:44.674Z,1.85
2022-09-22T01:36:55.122Z,2.20
2022-09-22T01:40:06.172Z,1.92
2022-09-22T01:43:16.219Z,1.83
2022-09-22T01:46:28.013Z,1.67
2022-09-22T01:49:36.838Z,2.00
2022-09-22T01:52:42.902Z,2.30
2022-09-22T01:55:51.090Z,1.77
2022-09-22T01:58:57.369Z,1.92
2022-09-22T02:02:06.334Z,2.55
2022-09-22T02:05:13.655Z,2.42
2022-09-22T02:08:28.859Z,2.03
2022-09-22T02:11:33.352Z,1.80
2022-09-22T02:14:37.146Z,2.97
2022-09-22T02:17:42.781Z,2.10
2022-09-22T02:20:47.176Z,1.92
2022-09-22T02:23:51.125Z,1.50
2022-09-22T02:26:58.322Z,2.15
2022-09-22T02:30:07.561Z,1.90
2022-09-22T02:33:14.208Z,2.25
2022-09-22T02:36:40.082Z,2.20
2022-09-22T02:39:48.734Z,1.98
2022-09-22T02:43:00.441Z,2.10
2022-09-22T02:46:10.336Z,2.05
2022-09-22T02:49:18.923Z,2.15
2022-09-22T02:52:25.570Z,2.28
2022-09-22T02:55:29.617Z,2.20
2022-09-22T02:58:33.280Z,2.03
2022-09-22T03:01:37.163Z,2.00
2022-09-22T03:04:42.828Z,2.05
2022-09-22T03:07:46.676Z,2.00
2022-09-22T03:10:50.386Z,2.22
2022-09-22T03:13:54.102Z,2.50
2022-09-22T03:16:57.850Z,2.75
2022-09-22T03:20:04.009Z,2.53
2022-09-22T03:23:07.677Z,2.47
2022-09-22T03:26:11.282Z,2.40
2022-09-22T03:29:14.890Z,2.05
2022-09-22T03:32:18.577Z,2.30
2022-09-22T03:35:24.200Z,2.20
2022-09-22T03:38:27.833Z,2.55
2022-09-22T03:41:31.481Z,2.53
2022-09-22T03:44:35.137Z,2.70
2022-09-22T03:47:38.723Z,2.28
2022-09-22T03:50:44.255Z,2.53
2022-09-22T03:53:47.890Z,2.33
2022-09-22T03:56:51.960Z,1.98
2022-09-22T04:02:59.500Z,2.00
2022-09-22T04:06:05.949Z,2.42
2022-09-22T04:09:10.030Z,2.05
2022-09-22T04:12:13.689Z,2.15
2022-09-22T04:15:17.493Z,2.10
2022-09-22T04:18:21.450Z,1.67
2022-09-22T04:24:33.768Z,1.73
2022-09-22T04:27:37.406Z,1.90
2022-09-22T04:30:43.262Z,1.80
2022-09-22T04:33:47.063Z,2.30
2022-09-22T04:36:52.570Z,2.30
2022-09-22T04:39:56.246Z,2.53
2022-09-22T04:42:59.922Z,2.80
2022-09-22T04:46:04.199Z,2.83
2022-09-22T04:49:07.805Z,2.83
2022-09-22T04:52:13.334Z,3.00
2022-09-22T04:55:17.197Z,1.92
2022-09-22T04:58:20.842Z,2.30
2022-09-22T05:01:26.691Z,2.88
2022-09-22T05:04:30.497Z,2.05
2022-09-22T05:07:36.389Z,2.60
2022-09-22T05:10:40.872Z,2.70
2022-09-22T05:13:44.475Z,2.90
2022-09-22T05:16:48.197Z,3.38
2022-09-22T05:19:54.173Z,3.58
2022-09-22T05:22:59.948Z,3.67
2022-09-22T05:26:03.573Z,3.53
2022-09-22T05:29:07.287Z,3.15
2022-09-22T05:32:10.943Z,3.40
2022-09-22T05:35:15.178Z,2.70
2022-09-22T05:38:21.466Z,3.08
2022-09-22T05:41:25.183Z,3.45
2022-09-22T05:44:28.801Z,3.50
2022-09-22T05:47:34.794Z,3.45
2022-09-22T05:50:38.467Z,3.78
2022-09-22T05:53:44.005Z,3.83
2022-09-22T05:56:47.594Z,3.17
2022-09-22T05:59:51.172Z,3.92
2022-09-22T06:02:55.003Z,3.90
2022-09-22T06:05:58.998Z,4.03
2022-09-22T06:09:04.770Z,4.63
2022-09-22T06:12:08.968Z,4.82
2022-09-22T06:15:12.589Z,4.38
2022-09-22T06:18:21.954Z,4.68
2022-09-22T06:21:27.921Z,5.78
2022-09-22T06:24:33.775Z,6.38
2022-09-22T06:27:37.391Z,6.15
2022-09-22T06:30:41.159Z,4.93
2022-09-22T06:33:48.024Z,5.15
2022-09-22T06:36:53.297Z,5.45
2022-09-22T06:39:58.832Z,6.72
2022-09-22T06:43:11.458Z,7.15
2022-09-22T06:46:17.922Z,5.93
2022-09-22T06:49:21.760Z,5.30
2022-09-22T06:52:26.586Z,5.57
2022-09-22T06:55:33.038Z,5.78
2022-09-22T06:58:58.647Z,6.15
2022-09-22T07:02:03.769Z,6.43
2022-09-22T07:05:07.937Z,6.28
2022-09-22T07:08:11.550Z,6.93
2022-09-22T07:11:23.001Z,7.93
2022-09-22T07:14:27.609Z,7.97
2022-09-22T07:17:32.034Z,7.78
2022-09-22T07:20:35.842Z,8.93
2022-09-22T07:26:45.973Z,9.30
2022-09-22T07:29:49.572Z,9.60
2022-09-22T07:32:53.210Z,8.73
2022-09-22T07:36:05.061Z,8.43
2022-09-22T07:39:10.738Z,8.90
2022-09-22T07:42:16.418Z,10.15
2022-09-22T07:45:22.974Z,8.25
2022-09-22T07:48:42.501Z,8.50
2022-09-22T07:51:46.684Z,8.93
2022-09-22T07:54:50.305Z,8.07
2022-09-22T07:58:00.701Z,8.70
2022-09-22T08:01:07.995Z,8.43
2022-09-22T08:04:16.094Z,8.15
2022-09-22T08:07:19.730Z,8.30
2022-09-22T08:10:23.331Z,7.35
2022-09-22T08:13:29.105Z,8.02
2022-09-22T08:16:34.588Z,7.20
2022-09-22T08:19:38.350Z,7.13
2022-09-22T08:22:42.282Z,7.28
2022-09-22T08:25:45.905Z,7.07
2022-09-22T08:28:55.338Z,6.40
2022-09-22T08:31:58.969Z,5.80
2022-09-22T08:35:03.228Z,6.30
2022-09-22T08:38:10.734Z,5.55
2022-09-22T08:41:23.737Z,6.28
2022-09-22T08:44:34.549Z,5.43
2022-09-22T08:47:56.168Z,5.53
2022-09-22T08:51:18.846Z,4.82
2022-09-22T08:54:26.150Z,6.03
2022-09-22T08:57:55.661Z,4.57
2022-09-22T09:01:11.490Z,4.78
2022-09-22T09:04:48.465Z,4.93
2022-09-22T09:08:00.252Z,5.00
2022-09-22T09:11:15.734Z,5.28
2022-09-22T09:14:43.300Z,4.45
2022-09-22T09:17:50.208Z,4.85
2022-09-22T09:20:53.975Z,4.65
2022-09-22T09:27:29.683Z,4.00
2022-09-22T09:30:39.926Z,3.53
2022-09-22T09:33:55.969Z,3.70
2022-09-22T09:37:07.541Z,3.53
2022-09-22T09:40:17.584Z,3.83
2022-09-22T09:43:24.146Z,3.40
2022-09-22T09:46:40.577Z,3.47
2022-09-22T09:49:52.833Z,4.05
2022-09-22T09:52:57.209Z,3.08
2022-09-22T09:56:00.981Z,3.40
2022-09-22T09:59:19.945Z,3.83
2022-09-22T10:02:26.840Z,2.72
2022-09-22T10:05:36.944Z,2.58
2022-09-22T10:08:45.523Z,3.08
2022-09-22T10:11:59.986Z,2.67
2022-09-22T10:15:04.795Z,2.83
2022-09-22T10:18:32.801Z,2.88
2022-09-22T10:21:38.376Z,1.90
2022-09-22T10:24:42.778Z,2.00
2022-09-22T10:28:00.771Z,2.28
2022-09-22T10:31:04.795Z,1.77
2022-09-22T10:34:30.582Z,1.73
2022-09-22T10:37:36.754Z,2.15
2022-09-22T10:40:43.335Z,2.00
2022-09-22T10:43:51.399Z,1.95
2022-09-22T10:47:19.510Z,2.47
2022-09-22T10:50:54.980Z,2.30
2022-09-22T10:54:20.827Z,2.10
2022-09-22T10:57:37.168Z,1.85
2022-09-22T11:00:42.295Z,2.00
2022-09-22T11:04:00.564Z,1.65
2022-09-22T11:07:32.154Z,1.80
2022-09-22T11:10:56.061Z,2.50
2022-09-22T11:14:10.418Z,2.17
2022-09-22T11:17:31.646Z,2.05
2022-09-22T11:20:37.919Z,2.20
2022-09-22T11:23:59.604Z,2.55
2022-09-22T11:27:06.150Z,2.10
2022-09-22T11:30:20.086Z,2.40
2022-09-22T11:33:39.360Z,2.00
2022-09-22T11:36:51.769Z,2.05
2022-09-22T11:40:18.173Z,2.03
2022-09-22T11:43:40.708Z,2.13
2022-09-22T11:47:00.487Z,1.77
2022-09-22T11:50:32.934Z,2.22
2022-09-22T11:54:11.549Z,2.03
2022-09-22T11:57:18.862Z,1.75
2022-09-22T12:00:24.519Z,2.05
2022-09-22T12:03:34.314Z,1.90
2022-09-22T12:06:44.260Z,1.90
2022-09-22T12:09:52.884Z,1.98
2022-09-22T12:12:56.840Z,2.22
2022-09-22T12:19:21.020Z,1.60
2022-09-22T12:22:30.639Z,1.80
2022-09-22T12:25:51.555Z,1.85
2022-09-22T12:28:57.385Z,1.70
2022-09-22T12:32:03.237Z,1.30
2022-09-22T12:35:10.099Z,1.63
2022-09-22T12:38:14.395Z,1.55
2022-09-22T12:41:20.703Z,1.70
2022-09-22T12:44:26.821Z,1.58
2022-09-22T12:47:35.112Z,1.88
2022-09-22T12:50:41.539Z,1.70
2022-09-22T12:57:27.635Z,1.70
2022-09-22T13:00:37.425Z,1.92
2022-09-22T13:03:51.852Z,1.50
2022-09-22T13:06:58.128Z,1.63
2022-09-22T13:10:34.640Z,2.13
2022-09-22T13:13:40.801Z,1.85
2022-09-22T13:16:45.800Z,1.92
2022-09-22T13:19:57.524Z,2.78
2022-09-22T13:23:07.923Z,1.58
2022-09-22T13:26:15.668Z,1.35
2022-09-22T13:29:21.426Z,1.90
2022-09-22T13:32:27.346Z,1.75
2022-09-22T13:35:36.064Z,2.03
2022-09-22T13:38:42.213Z,1.73
2022-09-22T13:41:50.110Z,2.08
2022-09-22T13:44:59.149Z,2.08
2022-09-22T13:48:09.369Z,2.35
2022-09-22T13:51:17.928Z,2.00
2022-09-22T13:54:26.774Z,2.22
2022-09-22T13:57:32.838Z,2.00
2022-09-22T14:01:08.494Z,2.75
2022-09-22T14:04:23.508Z,1.92
2022-09-22T14:07:31.721Z,2.30
2022-09-22T14:10:35.710Z,2.47
2022-09-22T14:16:50.008Z,2.30
2022-09-22T14:19:57.184Z,1.75
2022-09-22T14:23:02.873Z,2.00
2022-09-22T14:26:36.954Z,2.05
2022-09-22T14:29:41.473Z,2.50
2022-09-22T14:32:50.394Z,2.42
2022-09-22T14:36:01.877Z,1.90
2022-09-22T14:39:10.529Z,1.60
2022-09-22T14:42:22.320Z,1.60
2022-09-22T14:45:28.832Z,1.90
2022-09-22T14:48:35.609Z,1.55
2022-09-22T14:51:39.518Z,1.52
2022-09-22T14:57:51.072Z,1.80
2022-09-22T15:01:10.635Z,1.50
2022-09-22T15:04:20.525Z,1.77
2022-09-22T15:07:28.539Z,1.52
2022-09-22T15:10:34.857Z,1.60
2022-09-22T15:13:40.975Z,1.77
2022-09-22T15:16:44.663Z,1.40
2022-09-22T15:19:52.791Z,1.73
2022-09-22T15:22:56.780Z,1.58
2022-09-22T15:26:05.013Z,1.70
2022-09-22T15:29:11.992Z,1.20
2022-09-22T15:32:15.988Z,2.50
2022-09-22T15:38:26.837Z,1.88
2022-09-22T15:41:33.316Z,1.50
2022-09-22T15:44:37.133Z,1.52
2022-09-22T15:47:41.046Z,1.67
2022-09-22T15:53:48.100Z,1.50
2022-09-22T15:56:55.892Z,1.60
2022-09-22T15:59:59.542Z,1.60
2022-09-22T16:03:03.449Z,1.70
2022-09-22T16:06:09.483Z,1.67
2022-09-22T16:09:16.539Z,1.38
2022-09-22T16:12:23.529Z,1.55
2022-09-22T16:15:29.691Z,1.60
2022-09-22T16:18:34.751Z,1.65
2022-09-22T16:21:40.617Z,1.42
2022-09-22T16:24:44.258Z,1.90
2022-09-22T16:27:49.897Z,1.50
2022-09-22T16:30:53.502Z,1.55
2022-09-22T16:33:59.677Z,2.00
2022-09-22T16:37:03.299Z,1.60
2022-09-22T16:40:08.448Z,1.38
2022-09-22T16:43:14.126Z,1.35
2022-09-22T16:46:31.257Z,1.58
2022-09-22T16:49:36.905Z,1.40
2022-09-22T16:52:40.537Z,2.22
2022-09-22T16:55:49.664Z,1.38
2022-09-22T16:58:55.854Z,1.60
2022-09-22T17:01:59.583Z,1.67
2022-09-22T17:05:03.268Z,1.27
2022-09-22T17:08:07.589Z,1.70
2022-09-22T17:11:12.853Z,1.38
2022-09-22T17:14:20.499Z,1.73
2022-09-22T17:17:24.157Z,1.80
2022-09-22T17:20:28.233Z,1.45
2022-09-22T17:23:31.813Z,1.63
2022-09-22T17:26:38.289Z,1.85
2022-09-22T17:29:44.010Z,1.75
2022-09-22T17:32:47.850Z,2.28
2022-09-22T17:35:56.882Z,1.77
2022-09-22T17:39:02.214Z,1.90
2022-09-22T17:42:06.127Z,2.10
2022-09-22T17:45:12.569Z,2.08
2022-09-22T17:48:29.370Z,2.63
2022-09-22T17:51:47.933Z,2.88
2022-09-22T17:55:04.685Z,2.40
2022-09-22T17:58:09.390Z,2.55
2022-09-22T18:01:15.306Z,2.83
2022-09-22T18:04:18.969Z,2.20
2022-09-22T18:07:24.757Z,2.15
2022-09-22T18:10:31.674Z,2.03
2022-09-22T18:13:39.139Z,2.13
2022-09-22T18:16:45.801Z,2.95
2022-09-22T18:19:49.575Z,2.22
2022-09-22T18:22:53.184Z,2.30
2022-09-22T18:26:01.054Z,2.38
2022-09-22T18:29:09.326Z,2.47
2022-09-22T18:32:14.904Z,2.97
2022-09-22T18:35:19.510Z,2.65
2022-09-22T18:38:23.452Z,3.08
2022-09-22T18:41:27.821Z,2.58
2022-09-22T18:44:31.554Z,2.30
2022-09-22T18:47:43.004Z,2.40
2022-09-22T18:50:47.069Z,2.22
2022-09-22T18:53:51.277Z,2.45
2022-09-22T18:56:54.953Z,2.78
2022-09-22T18:59:59.660Z,3.60
2022-09-22T19:03:05.686Z,5.28
2022-09-22T19:06:09.739Z,5.72
2022-09-22T19:12:18.678Z,5.40
2022-09-22T19:15:22.941Z,5.30
2022-09-22T19:18:28.574Z,6.72
2022-09-22T19:21:35.002Z,5.93
2022-09-22T19:24:41.101Z,4.80
2022-09-22T19:27:44.714Z,4.43
2022-09-22T19:30:48.356Z,4.55
2022-09-22T19:33:53.911Z,4.15
2022-09-22T19:36:58.111Z,4.32
2022-09-22T19:40:01.711Z,4.97
2022-09-22T19:43:05.476Z,5.22
2022-09-22T19:46:09.108Z,6.43
2022-09-22T19:49:15.846Z,7.93
2022-09-22T19:52:19.464Z,6.13
2022-09-22T19:55:23.184Z,5.28
2022-09-22T19:58:27.032Z,5.22
2022-09-22T20:01:32.735Z,4.35
2022-09-22T20:04:38.486Z,4.45
2022-09-22T20:07:42.103Z,4.75
2022-09-22T20:10:46.767Z,5.70
2022-09-22T20:14:03.618Z,7.10
2022-09-22T20:17:09.547Z,7.07
2022-09-22T20:20:16.211Z,8.23
2022-09-22T20:23:21.497Z,6.57
2022-09-22T20:26:26.034Z,5.13
2022-09-22T20:29:29.801Z,5.13
2022-09-22T20:32:33.958Z,5.22
2022-09-22T20:35:39.689Z,6.10
2022-09-22T20:38:43.596Z,6.57
2022-09-22T20:41:47.397Z,6.80
2022-09-22T20:44:51.881Z,5.20
2022-09-22T20:47:55.680Z,5.20
2022-09-22T20:51:02.793Z,5.15
2022-09-22T20:54:07.702Z,6.57
2022-09-22T20:57:11.727Z,6.22
2022-09-22T21:03:21.476Z,5.18
2022-09-22T21:06:27.433Z,5.10
2022-09-22T21:09:44.357Z,6.45
2022-09-22T21:12:50.058Z,4.65
2022-09-22T21:15:59.974Z,5.15
2022-09-22T21:19:04.094Z,4.82
2022-09-22T21:25:13.523Z,4.45
2022-09-22T21:31:21.945Z,4.95
2022-09-22T21:34:26.099Z,5.07
2022-09-22T21:40:35.397Z,5.20
2022-09-22T21:43:39.801Z,4.80
2022-09-22T21:46:43.654Z,5.32
2022-09-22T21:49:49.163Z,7.25
2022-09-22T21:52:54.715Z,5.53
2022-09-22T21:55:59.670Z,5.20
2022-09-22T21:59:03.823Z,4.60
2022-09-22T22:02:07.449Z,5.65
2022-09-22T22:05:14.642Z,4.85
2022-09-22T22:08:20.185Z,4.82
2022-09-22T22:11:25.837Z,5.32
2022-09-22T22:14:34.270Z,5.25
2022-09-22T22:17:37.855Z,5.05
2022-09-22T22:20:41.458Z,5.05
2022-09-22T22:23:48.809Z,5.50
2022-09-22T22:26:56.371Z,5.85
2022-09-22T22:30:00.156Z,5.47
2022-09-22T22:33:03.766Z,5.30
2022-09-22T22:36:09.694Z,5.78
2022-09-22T22:39:15.779Z,5.72
2022-09-22T22:42:19.482Z,5.30
2022-09-22T22:45:23.089Z,5.65
2022-09-22T22:48:27.699Z,5.25
2022-09-22T22:51:31.483Z,5.97
2022-09-22T22:54:37.157Z,5.53
2022-09-22T22:57:40.791Z,6.15
2022-09-22T23:00:44.409Z,6.30
2022-09-22T23:03:49.594Z,6.28
2022-09-22T23:06:53.270Z,5.80
2022-09-22T23:10:07.377Z,5.88
2022-09-22T23:13:11.459Z,5.80
2022-09-22T23:19:20.271Z,5.70
2022-09-22T23:22:24.021Z,6.13
2022-09-22T23:25:29.581Z,5.47
2022-09-22T23:28:34.028Z,5.80
2022-09-22T23:31:37.654Z,5.55
2022-09-22T23:34:41.262Z,5.57
2022-09-22T23:37:44.909Z,5.63
2022-09-22T23:40:50.626Z,5.65
2022-09-22T23:43:54.302Z,6.05
2022-09-22T23:46:58.595Z,6.03
2022-09-22T23:50:02.371Z,5.53
2022-09-22T23:53:06.970Z,5.65
2022-09-22T23:56:12.960Z,6.00
2022-09-22T23:59:16.604Z,5.35
